This is the latest recevied weather packets stored in our database for station/object KA8DUX-2. If no packets are shown the sender has not sent any weather packets the latest 10 day(s).
| Time | Temp. | Humidity | Pressure | Rain* | Wind** | Luminosity | Snow |
|---|---|---|---|---|---|---|---|
| 1778187213 | 13.33° C | 42% | 1010.5 hPa | 0 mm | - | 560 W/m² | - |
| 1778186909 | 13.33° C | 42% | 1010.6 hPa | 0 mm | - | 223 W/m² | - |
| 1778186606 | 13.89° C | 40% | 1010.6 hPa | 0 mm | - | 528 W/m² | - |
| 1778186304 | 13.89° C | 40% | 1010.8 hPa | 0 mm | - | 530 W/m² | - |
| 1778186002 | 13.89° C | 41% | 1010.6 hPa | 0 mm | - | 524 W/m² | - |
| 1778185697 | 13.33° C | 42% | 1010.7 hPa | 0 mm | - | 574 W/m² | - |
| 1778185394 | 12.22° C | 42% | 1011 hPa | 0 mm | - | 594 W/m² | - |
| 1778185089 | 13.89° C | 42% | 1010.8 hPa | 0 mm | - | 607 W/m² | - |
| 1778184786 | 12.78° C | 42% | 1011 hPa | 0 mm | - | 589 W/m² | - |
| 1778184482 | 13.33° C | 38% | 1011 hPa | 0 mm | - | 603 W/m² | - |
| 1778184178 | 13.89° C | 39% | 1011 hPa | 0 mm | - | 620 W/m² | - |
| 1778183874 | 13.33° C | 41% | 1011.2 hPa | 0 mm | - | 631 W/m² | - |
| 1778183572 | 13.33° C | 41% | 1011.1 hPa | 0 mm | - | 639 W/m² | - |
| 1778183269 | 13.33° C | 42% | 1011.1 hPa | 0 mm | - | 643 W/m² | - |
| 1778182965 | 13.89° C | 39% | 1011.2 hPa | 0 mm | - | 615 W/m² | - |
| 1778182661 | 13.89° C | 39% | 1011.2 hPa | 0 mm | - | 626 W/m² | - |
| 1778182358 | 13.89° C | 39% | 1011.2 hPa | 0 mm | - | 647 W/m² | - |
| 1778182054 | 13.89° C | 42% | 1011.2 hPa | 0 mm | - | 643 W/m² | - |
| 1778181751 | 13.33° C | 41% | 1011.4 hPa | 0 mm | - | 617 W/m² | - |
| 1778181447 | 13.89° C | 39% | 1011.4 hPa | 0 mm | - | 638 W/m² | - |
| 1778181144 | 13.33° C | 40% | 1011.2 hPa | 0 mm | - | 462 W/m² | - |
| 1778180841 | 12.22° C | 43% | 1011.6 hPa | 0 mm | - | 765 W/m² | - |
| 1778180540 | 13.33° C | 41% | 1011.7 hPa | 0 mm | - | 271 W/m² | - |
| 1778180238 | 13.89° C | 40% | 1011.6 hPa | 0 mm | - | 478 W/m² | - |
| 1778179934 | 13.33° C | 41% | 1011.8 hPa | 0 mm | - | 707 W/m² | - |
* Rain latest hour (hover to see other rain measurements)
** Current wind speed in m/s (hover to see current wind gust speed)